createdAt,value
2022-08-12T00:02:04.789Z,101629.56
2022-08-12T00:04:52.798Z,101623.88
2022-08-12T00:07:39.222Z,101621.97
2022-08-12T00:10:25.013Z,101624.31
2022-08-12T00:13:12.886Z,101625.16
2022-08-12T00:16:01.225Z,101629.00
2022-08-12T00:18:46.688Z,101619.28
2022-08-12T00:21:33.252Z,101617.81
2022-08-12T00:24:22.309Z,101618.69
2022-08-12T00:27:08.215Z,101618.06
2022-08-12T00:29:54.253Z,101626.53
2022-08-12T00:32:43.521Z,101616.63
2022-08-12T00:35:41.456Z,101620.59
2022-08-12T00:38:26.569Z,101625.25
2022-08-12T00:41:12.464Z,101623.59
2022-08-12T00:43:39.778Z,101617.91
2022-08-12T00:46:24.874Z,101628.25
2022-08-12T00:48:52.225Z,101619.97
2022-08-12T00:51:20.015Z,101627.38
2022-08-12T00:53:47.373Z,101626.16
2022-08-12T00:56:14.246Z,101627.19
2022-08-12T00:58:48.489Z,101623.41
2022-08-12T01:01:17.174Z,101616.88
2022-08-12T01:04:08.193Z,101626.16
2022-08-12T01:06:55.689Z,101629.75
2022-08-12T01:09:41.180Z,101625.94
2022-08-12T01:12:10.789Z,101630.84
2022-08-12T01:14:37.546Z,101620.22
2022-08-12T01:17:04.172Z,101618.56
2022-08-12T01:19:31.164Z,101619.41
2022-08-12T01:22:33.960Z,101619.00
2022-08-12T01:25:06.742Z,101624.09
2022-08-12T01:27:35.139Z,101615.41
2022-08-12T01:30:07.785Z,101620.03
2022-08-12T01:32:37.615Z,101621.50
2022-08-12T01:35:10.430Z,101616.69
2022-08-12T01:37:55.909Z,101619.00
2022-08-12T01:40:36.990Z,101628.75
2022-08-12T01:43:08.560Z,101616.69
2022-08-12T01:45:43.620Z,101616.25
2022-08-12T01:48:34.821Z,101620.28
2022-08-12T01:52:15.770Z,101623.03
2022-08-12T01:54:18.126Z,101614.16
2022-08-12T01:56:50.336Z,101614.19
2022-08-12T01:59:47.153Z,101610.78
2022-08-12T02:02:19.109Z,101609.34
2022-08-12T02:05:22.083Z,101606.38
2022-08-12T02:08:16.516Z,101603.84
2022-08-12T02:11:16.459Z,101608.72
2022-08-12T02:14:03.979Z,101601.13
2022-08-12T02:16:46.337Z,101599.25
2022-08-12T02:19:54.590Z,101603.47
2022-08-12T02:22:38.334Z,101598.19
2022-08-12T02:25:10.017Z,101589.72
2022-08-12T02:27:45.780Z,101597.53
2022-08-12T02:30:16.348Z,101596.91
2022-08-12T02:32:44.887Z,101596.28
2022-08-12T02:35:15.037Z,101592.91
2022-08-12T02:37:43.721Z,101588.03
2022-08-12T02:40:12.478Z,101580.22
2022-08-12T02:42:50.044Z,101588.69
2022-08-12T02:45:22.119Z,101591.44
2022-08-12T02:47:59.672Z,101590.59
2022-08-12T02:50:31.608Z,101586.78
2022-08-12T02:52:59.510Z,101584.25
2022-08-12T02:55:34.989Z,101590.16
2022-08-12T02:58:09.120Z,101584.03
2022-08-12T03:00:40.117Z,101583.44
2022-08-12T03:03:10.035Z,101582.56
2022-08-12T03:05:45.080Z,101576.03
2022-08-12T03:08:31.407Z,101574.34
2022-08-12T03:11:10.159Z,101565.47
2022-08-12T03:13:45.933Z,101568.03
2022-08-12T03:16:12.662Z,101564.63
2022-08-12T03:18:45.817Z,101577.28
2022-08-12T03:21:17.004Z,101577.06
2022-08-12T03:23:45.430Z,101570.13
2022-08-12T03:26:12.575Z,101570.53
2022-08-12T03:28:51.450Z,101574.13
2022-08-12T03:31:19.583Z,101576.84
2022-08-12T03:34:02.386Z,101578.13
2022-08-12T03:36:36.073Z,101581.28
2022-08-12T03:39:35.423Z,101577.69
2022-08-12T03:42:26.444Z,101584.63
2022-08-12T03:45:52.002Z,101585.06
2022-08-12T03:48:38.481Z,101586.09
2022-08-12T03:51:24.045Z,101585.91
2022-08-12T03:54:11.597Z,101579.72
2022-08-12T03:56:57.741Z,101583.53
2022-08-12T03:59:42.795Z,101575.97
2022-08-12T04:02:14.728Z,101575.09
2022-08-12T04:04:45.130Z,101567.72
2022-08-12T04:07:12.639Z,101572.56
2022-08-12T04:09:42.955Z,101565.59
2022-08-12T04:12:32.905Z,101567.94
2022-08-12T04:15:00.693Z,101570.88
2022-08-12T04:17:28.270Z,101573.59
2022-08-12T04:19:56.615Z,101578.25
2022-08-12T04:22:26.370Z,101565.59
2022-08-12T04:24:53.870Z,101569.59
2022-08-12T04:27:20.508Z,101569.81
2022-08-12T04:30:30.032Z,101569.38
2022-08-12T04:32:36.879Z,101563.69
2022-08-12T04:35:07.391Z,101567.88
2022-08-12T04:37:57.999Z,101564.94
2022-08-12T04:40:28.135Z,101564.88
2022-08-12T04:42:55.811Z,101562.56
2022-08-12T04:45:22.684Z,101566.19
2022-08-12T04:47:49.362Z,101565.53
2022-08-12T04:50:35.373Z,101564.28
2022-08-12T04:53:04.659Z,101573.53
2022-08-12T04:55:31.629Z,101568.47
2022-08-12T04:58:00.240Z,101571.47
2022-08-12T05:00:27.584Z,101572.72
2022-08-12T05:02:54.040Z,101568.69
2022-08-12T05:05:23.205Z,101565.31
2022-08-12T05:07:54.241Z,101573.09
2022-08-12T05:10:33.186Z,101575.44
2022-08-12T05:13:06.054Z,101570.59
2022-08-12T05:15:32.554Z,101575.44
2022-08-12T05:18:00.129Z,101575.41
2022-08-12T05:20:29.465Z,101575.44
2022-08-12T05:23:19.366Z,101580.06
2022-08-12T05:25:48.977Z,101574.16
2022-08-12T05:28:16.971Z,101576.91
2022-08-12T05:30:44.643Z,101580.53
2022-08-12T05:33:12.432Z,101579.06
2022-08-12T05:35:42.824Z,101582.88
2022-08-12T05:38:29.707Z,101576.13
2022-08-12T05:40:56.483Z,101585.63
2022-08-12T05:43:23.214Z,101578.47
2022-08-12T05:45:49.629Z,101585.22
2022-08-12T05:48:16.657Z,101592.38
2022-08-12T05:50:44.167Z,101587.94
2022-08-12T05:53:11.436Z,101588.81
2022-08-12T05:55:37.885Z,101599.78
2022-08-12T05:58:07.698Z,101600.00
2022-08-12T06:00:35.757Z,101597.91
2022-08-12T06:03:04.604Z,101598.53
2022-08-12T06:05:52.539Z,101600.22
2022-08-12T06:08:23.369Z,101594.59
2022-08-12T06:10:50.289Z,101601.75
2022-08-12T06:13:28.442Z,101599.25
2022-08-12T06:16:04.746Z,101597.34
2022-08-12T06:18:31.325Z,101588.69
2022-08-12T06:21:02.060Z,101602.44
2022-08-12T06:23:29.583Z,101594.81
2022-08-12T06:25:56.669Z,101596.50
2022-08-12T06:28:23.610Z,101597.97
2022-08-12T06:31:24.430Z,101594.63
2022-08-12T06:34:00.182Z,101593.56
2022-08-12T06:36:29.475Z,101600.50
2022-08-12T06:38:56.230Z,101596.69
2022-08-12T06:41:41.146Z,101584.03
2022-08-12T06:44:27.712Z,101595.16
2022-08-12T06:46:54.218Z,101593.59
2022-08-12T06:49:23.706Z,101591.34
2022-08-12T06:51:56.276Z,101596.53
2022-08-12T06:54:31.860Z,101590.00
2022-08-12T06:57:04.225Z,101579.13
2022-08-12T06:59:32.276Z,101582.97
2022-08-12T07:01:58.753Z,101579.47
2022-08-12T07:04:36.380Z,101582.75
2022-08-12T07:07:05.459Z,101588.59
2022-08-12T07:10:04.158Z,101578.44
2022-08-12T07:12:19.910Z,101583.81
2022-08-12T07:14:51.321Z,101582.94
2022-08-12T07:17:17.888Z,101570.38
2022-08-12T07:19:46.773Z,101581.28
2022-08-12T07:22:15.461Z,101574.72
2022-08-12T07:24:42.225Z,101582.44
2022-08-12T07:27:08.749Z,101584.53
2022-08-12T07:30:03.627Z,101582.53
2022-08-12T07:32:25.534Z,101575.41
2022-08-12T07:34:56.155Z,101581.78
2022-08-12T07:37:22.596Z,101578.28
2022-08-12T07:39:59.101Z,101574.59
2022-08-12T07:42:27.410Z,101580.50
2022-08-12T07:44:53.864Z,101585.03
2022-08-12T07:47:20.264Z,101578.69
2022-08-12T07:50:05.611Z,101581.56
2022-08-12T07:52:34.549Z,101585.59
2022-08-12T07:55:01.988Z,101590.13
2022-08-12T07:57:28.412Z,101593.00
2022-08-12T07:59:55.645Z,101593.47
2022-08-12T08:02:30.703Z,101587.38
2022-08-12T08:04:58.061Z,101597.53
2022-08-12T08:07:27.346Z,101591.66
2022-08-12T08:09:59.305Z,101595.97
2022-08-12T08:12:45.993Z,101591.09
2022-08-12T08:15:14.818Z,101599.59
2022-08-12T08:17:51.953Z,101593.47
2022-08-12T08:20:28.426Z,101599.94
2022-08-12T08:22:57.012Z,101597.50
2022-08-12T08:25:36.315Z,101598.28
2022-08-12T08:28:09.067Z,101607.56
2022-08-12T08:30:38.735Z,101596.97
2022-08-12T08:33:20.086Z,101598.09
2022-08-12T08:35:51.459Z,101595.81
2022-08-12T08:38:32.119Z,101589.66
2022-08-12T08:42:15.897Z,101593.56
2022-08-12T08:44:06.120Z,101598.19
2022-08-12T08:46:37.636Z,101598.75
2022-08-12T08:49:05.278Z,101598.94
2022-08-12T08:51:32.081Z,101597.28
2022-08-12T08:53:58.536Z,101596.63
2022-08-12T08:56:25.009Z,101602.06
2022-08-12T08:58:51.414Z,101598.63
2022-08-12T09:01:22.399Z,101602.75
2022-08-12T09:05:08.987Z,101594.59
2022-08-12T09:09:23.789Z,101591.44
2022-08-12T09:12:12.226Z,101597.50
2022-08-12T09:14:46.819Z,101595.94
2022-08-12T09:17:21.373Z,101596.16
2022-08-12T09:19:57.268Z,101592.91
2022-08-12T09:22:29.314Z,101597.44
2022-08-12T09:24:55.986Z,101589.50
2022-08-12T09:30:15.844Z,101587.19
2022-08-12T09:33:04.226Z,101577.97
2022-08-12T09:35:44.224Z,101588.44
2022-08-12T09:38:29.840Z,101583.91
2022-08-12T09:42:07.487Z,101583.09
2022-08-12T09:44:06.043Z,101592.13
2022-08-12T09:46:34.709Z,101582.94
2022-08-12T09:49:01.501Z,101578.78
2022-08-12T09:51:37.733Z,101581.06
2022-08-12T09:54:33.773Z,101574.97
2022-08-12T09:57:03.614Z,101572.00
2022-08-12T10:00:14.855Z,101569.91
2022-08-12T10:02:45.497Z,101575.63
2022-08-12T10:05:22.631Z,101576.00
2022-08-12T10:08:10.621Z,101571.03
2022-08-12T10:10:58.588Z,101563.97
2022-08-12T10:13:43.553Z,101555.97
2022-08-12T10:16:22.366Z,101560.13
2022-08-12T10:19:03.889Z,101559.19
2022-08-12T10:21:38.559Z,101562.84
2022-08-12T10:24:20.279Z,101562.59
2022-08-12T10:27:05.659Z,101549.00
2022-08-12T10:30:03.706Z,101552.19
2022-08-12T10:32:42.748Z,101536.72
2022-08-12T10:35:13.981Z,101536.94
2022-08-12T10:38:38.768Z,101526.13
2022-08-12T10:40:33.244Z,101530.41
2022-08-12T10:43:19.584Z,101524.44
2022-08-12T10:45:49.570Z,101512.88
2022-08-12T10:48:21.313Z,101513.41
2022-08-12T10:51:01.215Z,101518.47
2022-08-12T10:53:46.004Z,101506.78
2022-08-12T10:56:17.579Z,101500.09
2022-08-12T10:58:46.755Z,101502.28
2022-08-12T11:01:50.118Z,101491.06
2022-08-12T11:04:35.528Z,101488.44
2022-08-12T11:07:05.912Z,101493.16
2022-08-12T11:10:00.035Z,101483.66
2022-08-12T11:12:56.675Z,101482.69
2022-08-12T11:15:20.793Z,101473.47
2022-08-12T11:17:53.585Z,101460.97
2022-08-12T11:20:20.779Z,101461.84
2022-08-12T11:22:59.086Z,101464.16
2022-08-12T11:25:42.787Z,101464.25
2022-08-12T11:28:13.808Z,101457.06
2022-08-12T11:30:40.938Z,101452.63
2022-08-12T11:33:11.677Z,101451.53
2022-08-12T11:35:42.904Z,101459.41
2022-08-12T11:38:10.758Z,101460.81
2022-08-12T11:40:37.210Z,101458.00
2022-08-12T11:43:19.743Z,101452.00
2022-08-12T11:45:46.835Z,101450.06
2022-08-12T11:48:15.181Z,101445.38
2022-08-12T11:50:45.111Z,101453.69
2022-08-12T11:53:57.032Z,101441.13
2022-08-12T12:02:02.691Z,101445.31
2022-08-12T12:02:31.727Z,101434.41
2022-08-12T12:04:58.302Z,101436.41
2022-08-12T12:08:37.187Z,101426.28
2022-08-12T12:10:13.407Z,101426.50
2022-08-12T12:12:41.411Z,101435.16
2022-08-12T12:15:09.524Z,101425.16
2022-08-12T12:17:40.547Z,101434.50
2022-08-12T12:20:10.004Z,101419.16
2022-08-12T12:22:39.622Z,101415.78
2022-08-12T12:25:13.316Z,101426.47
2022-08-12T12:28:04.859Z,101425.72
2022-08-12T12:30:33.741Z,101411.56
2022-08-12T12:33:00.475Z,101412.88
2022-08-12T12:36:19.712Z,101415.34
2022-08-12T12:38:14.570Z,101407.00
2022-08-12T12:40:46.138Z,101415.13
2022-08-12T12:43:42.569Z,101411.81
2022-08-12T12:46:04.710Z,101402.28
2022-08-12T12:48:31.115Z,101401.91
2022-08-12T12:51:49.185Z,101398.75
2022-08-12T12:54:06.868Z,101393.03
2022-08-12T12:56:50.055Z,101394.50
2022-08-12T12:59:54.861Z,101397.56
2022-08-12T13:02:08.189Z,101394.59
2022-08-12T13:04:37.457Z,101387.19
2022-08-12T13:07:06.370Z,101382.56
2022-08-12T13:09:35.818Z,101374.78
2022-08-12T13:12:03.001Z,101379.38
2022-08-12T13:14:31.636Z,101371.06
2022-08-12T13:17:02.598Z,101378.97
2022-08-12T13:19:45.100Z,101369.91
2022-08-12T13:22:18.484Z,101364.75
2022-08-12T13:24:45.439Z,101366.16
2022-08-12T13:27:11.849Z,101365.56
2022-08-12T13:29:39.121Z,101366.16
2022-08-12T13:32:19.297Z,101354.00
2022-08-12T13:34:53.440Z,101359.50
2022-08-12T13:37:43.860Z,101357.34
2022-08-12T13:40:17.807Z,101349.09
2022-08-12T13:42:48.104Z,101357.44
2022-08-12T13:45:17.432Z,101351.53
2022-08-12T13:48:10.321Z,101353.88
2022-08-12T13:50:43.475Z,101352.59
2022-08-12T13:53:25.980Z,101353.53
2022-08-12T13:56:02.411Z,101348.91
2022-08-12T13:58:34.762Z,101348.16
2022-08-12T14:01:05.348Z,101346.34
2022-08-12T14:03:51.420Z,101343.06
2022-08-12T14:06:18.639Z,101330.16
2022-08-12T14:08:45.275Z,101332.25
2022-08-12T14:11:18.161Z,101337.06
2022-08-12T14:14:04.712Z,101331.28
2022-08-12T14:16:37.548Z,101322.63
2022-08-12T14:19:18.291Z,101320.75
2022-08-12T14:22:00.949Z,101326.34
2022-08-12T14:24:40.571Z,101314.13
2022-08-12T14:27:10.404Z,101319.91
2022-08-12T14:30:05.722Z,101314.03
2022-08-12T14:32:35.402Z,101314.97
2022-08-12T14:35:06.603Z,101312.16
2022-08-12T14:37:56.073Z,101316.09
2022-08-12T14:40:27.996Z,101316.16
2022-08-12T14:42:55.157Z,101310.16
2022-08-12T14:45:24.663Z,101314.09
2022-08-12T14:48:12.476Z,101308.66
2022-08-12T14:52:07.904Z,101304.19
2022-08-12T14:59:23.936Z,101305.78
2022-08-12T15:01:51.103Z,101307.22
2022-08-12T15:04:24.672Z,101306.00
2022-08-12T15:06:53.098Z,101294.25
2022-08-12T15:09:28.731Z,101292.13
2022-08-12T15:12:03.078Z,101289.63
2022-08-12T15:14:31.324Z,101287.63
2022-08-12T15:17:00.723Z,101292.22
2022-08-12T15:20:28.248Z,101280.31
2022-08-12T15:22:37.940Z,101273.13
2022-08-12T15:25:05.262Z,101275.00
2022-08-12T15:28:11.105Z,101271.25
2022-08-12T15:30:25.558Z,101281.16
2022-08-12T15:32:57.135Z,101280.25
2022-08-12T15:35:24.026Z,101274.56
2022-08-12T15:38:10.207Z,101280.84
2022-08-12T15:40:46.673Z,101282.22
2022-08-12T15:43:51.778Z,101280.03
2022-08-12T15:46:02.865Z,101272.56
2022-08-12T15:48:32.615Z,101275.56
2022-08-12T15:51:00.394Z,101272.56
2022-08-12T15:53:46.098Z,101272.72
2022-08-12T15:56:22.154Z,101273.91
2022-08-12T15:58:58.825Z,101268.84
2022-08-12T16:01:34.996Z,101273.31
2022-08-12T16:04:03.155Z,101272.47
2022-08-12T16:06:52.095Z,101272.19
2022-08-12T16:09:56.488Z,101268.31
2022-08-12T16:12:08.844Z,101265.78
2022-08-12T16:14:38.640Z,101269.97
2022-08-12T16:17:05.433Z,101260.31
2022-08-12T16:20:02.849Z,101257.34
2022-08-12T16:22:25.717Z,101255.16
2022-08-12T16:24:54.045Z,101255.13
2022-08-12T16:27:21.273Z,101261.78
2022-08-12T16:29:57.010Z,101249.81
2022-08-12T16:32:31.768Z,101251.56
2022-08-12T16:35:01.272Z,101251.88
2022-08-12T16:38:25.423Z,101255.81
2022-08-12T16:40:19.903Z,101250.53
2022-08-12T16:42:53.616Z,101254.16
2022-08-12T16:45:32.097Z,101248.63
2022-08-12T16:48:33.944Z,101250.06
2022-08-12T16:51:08.232Z,101248.09
2022-08-12T16:53:44.806Z,101248.69
2022-08-12T16:56:14.726Z,101245.34
2022-08-12T16:58:42.171Z,101245.09
2022-08-12T17:01:14.020Z,101247.38
2022-08-12T17:03:51.887Z,101237.66
2022-08-12T17:06:22.421Z,101246.00
2022-08-12T17:09:02.255Z,101235.69
2022-08-12T17:11:34.644Z,101238.78
2022-08-12T17:14:07.049Z,101239.09
2022-08-12T17:16:35.483Z,101241.91
2022-08-12T17:19:09.486Z,101242.97
2022-08-12T17:21:41.446Z,101238.53
2022-08-12T17:24:30.587Z,101247.50
2022-08-12T17:26:59.290Z,101238.59
2022-08-12T17:30:01.400Z,101240.25
2022-08-12T17:32:14.309Z,101244.16
2022-08-12T17:35:00.115Z,101248.38
2022-08-12T17:37:26.963Z,101239.19
2022-08-12T17:40:15.210Z,101244.75
2022-08-12T17:42:47.271Z,101240.56
2022-08-12T17:45:19.331Z,101240.03
2022-08-12T17:48:05.438Z,101233.09
2022-08-12T17:50:40.107Z,101239.47
2022-08-12T17:53:07.866Z,101238.38
2022-08-12T17:55:40.119Z,101247.00
2022-08-12T17:58:14.057Z,101238.38
2022-08-12T18:00:44.116Z,101246.16
2022-08-12T18:04:05.586Z,101242.22
2022-08-12T18:06:08.740Z,101246.94
2022-08-12T18:08:54.957Z,101256.97
2022-08-12T18:12:04.505Z,101257.75
2022-08-12T18:14:28.946Z,101259.72
2022-08-12T18:17:00.506Z,101264.13
2022-08-12T18:20:03.952Z,101253.56
2022-08-12T18:22:17.437Z,101258.50
2022-08-12T18:24:46.333Z,101257.69
2022-08-12T18:27:30.336Z,101260.75
2022-08-12T18:30:08.222Z,101258.47
2022-08-12T18:32:58.645Z,101264.84
2022-08-12T18:35:22.756Z,101268.06
2022-08-12T18:38:08.357Z,101271.97
2022-08-12T18:40:58.157Z,101265.84
2022-08-12T18:43:25.829Z,101269.06
2022-08-12T18:45:58.475Z,101271.50
2022-08-12T18:48:25.309Z,101270.88
2022-08-12T18:51:03.626Z,101277.53
2022-08-12T18:54:05.589Z,101275.41
2022-08-12T18:56:33.443Z,101270.41
2022-08-12T18:59:02.305Z,101273.66
2022-08-12T19:02:19.232Z,101275.56
2022-08-12T19:04:16.778Z,101271.38
2022-08-12T19:06:45.787Z,101268.72
2022-08-12T19:09:14.924Z,101274.00
2022-08-12T19:12:01.078Z,101271.88
2022-08-12T19:14:28.159Z,101275.19
2022-08-12T19:16:57.788Z,101282.78
2022-08-12T19:19:24.764Z,101284.25
2022-08-12T19:21:56.958Z,101284.19
2022-08-12T19:24:44.817Z,101285.50
2022-08-12T19:27:13.148Z,101283.66
2022-08-12T19:29:44.424Z,101288.72
2022-08-12T19:32:14.817Z,101288.84
2022-08-12T19:38:03.475Z,101298.88
2022-08-12T19:40:32.428Z,101307.97
2022-08-12T19:43:02.213Z,101304.63
2022-08-12T19:45:48.516Z,101298.47
2022-08-12T19:48:17.832Z,101303.59
2022-08-12T19:50:49.869Z,101302.47
2022-08-12T19:53:19.107Z,101305.47
2022-08-12T19:55:51.831Z,101304.81
2022-08-12T19:58:19.425Z,101296.94
2022-08-12T20:00:52.788Z,101300.34
2022-08-12T20:03:40.069Z,101296.66
2022-08-12T20:06:16.019Z,101301.38
2022-08-12T20:08:56.375Z,101295.25
2022-08-12T20:12:14.378Z,101294.16
2022-08-12T20:14:17.911Z,101295.59
2022-08-12T20:16:52.718Z,101294.84
2022-08-12T20:19:23.354Z,101293.75
2022-08-12T20:21:50.400Z,101301.16
2022-08-12T20:24:16.853Z,101294.19
2022-08-12T20:26:46.233Z,101298.88
2022-08-12T20:29:13.731Z,101303.06
2022-08-12T20:31:41.436Z,101297.63
2022-08-12T20:34:12.230Z,101313.28
2022-08-12T20:36:44.144Z,101311.56
2022-08-12T20:39:34.166Z,101312.56
2022-08-12T20:42:04.509Z,101310.13
2022-08-12T20:44:39.904Z,101306.44
2022-08-12T20:47:17.721Z,101307.09
2022-08-12T20:49:45.939Z,101303.47
2022-08-12T20:52:15.248Z,101308.91
2022-08-12T20:54:52.609Z,101309.31
2022-08-12T20:57:22.435Z,101306.47
2022-08-12T20:59:51.839Z,101308.69
2022-08-12T21:02:24.717Z,101310.69
2022-08-12T21:05:20.299Z,101312.59
2022-08-12T21:07:52.108Z,101313.56
2022-08-12T21:10:20.838Z,101312.44
2022-08-12T21:12:47.958Z,101320.34
2022-08-12T21:15:24.453Z,101321.31
2022-08-12T21:18:11.499Z,101321.91
2022-08-12T21:20:52.506Z,101324.06
2022-08-12T21:23:21.510Z,101325.38
2022-08-12T21:25:49.008Z,101323.56
2022-08-12T21:28:30.693Z,101318.31
2022-08-12T21:32:34.657Z,101321.44
2022-08-12T21:33:58.675Z,101321.66
2022-08-12T21:36:35.119Z,101321.44
2022-08-12T21:39:18.074Z,101317.41
2022-08-12T21:41:50.173Z,101323.88
2022-08-12T21:44:24.063Z,101322.44
2022-08-12T21:47:19.695Z,101325.94
2022-08-12T21:49:54.118Z,101320.44
2022-08-12T21:52:34.241Z,101321.28
2022-08-12T21:55:01.666Z,101321.38
2022-08-12T21:57:30.362Z,101323.56
2022-08-12T22:00:16.873Z,101315.53
2022-08-12T22:03:02.513Z,101315.28
2022-08-12T22:05:47.827Z,101312.13
2022-08-12T22:08:17.032Z,101314.41
2022-08-12T22:10:51.141Z,101315.13
2022-08-12T22:14:07.632Z,101316.44
2022-08-12T22:16:06.469Z,101327.97
2022-08-12T22:18:32.917Z,101317.78
2022-08-12T22:20:59.332Z,101316.91
2022-08-12T22:23:28.280Z,101316.44
2022-08-12T22:26:16.066Z,101309.34
2022-08-12T22:29:14.485Z,101321.09
2022-08-12T22:31:43.922Z,101310.19
2022-08-12T22:34:18.384Z,101317.88
2022-08-12T22:36:45.566Z,101319.06
2022-08-12T22:39:15.697Z,101321.59
2022-08-12T22:42:01.186Z,101315.00
2022-08-12T22:44:54.858Z,101315.28
2022-08-12T22:47:53.972Z,101322.25
2022-08-12T22:50:27.760Z,101316.53
2022-08-12T22:53:14.980Z,101304.91
2022-08-12T22:55:59.576Z,101323.09
2022-08-12T22:58:32.019Z,101325.38
2022-08-12T23:01:01.958Z,101326.81
2022-08-12T23:03:49.335Z,101322.50
2022-08-12T23:06:16.717Z,101320.28
2022-08-12T23:08:43.463Z,101320.28
2022-08-12T23:11:09.921Z,101312.25
2022-08-12T23:13:47.288Z,101311.38
2022-08-12T23:16:28.536Z,101309.47
2022-08-12T23:19:01.652Z,101313.63
2022-08-12T23:22:04.344Z,101308.22
2022-08-12T23:24:35.678Z,101306.53
2022-08-12T23:27:21.296Z,101312.88
2022-08-12T23:30:17.435Z,101312.88
2022-08-12T23:32:36.831Z,101307.75
2022-08-12T23:35:06.457Z,101300.16
2022-08-12T23:37:47.484Z,101302.25
2022-08-12T23:40:21.254Z,101306.72
2022-08-12T23:42:49.150Z,101300.81
2022-08-12T23:45:20.132Z,101313.50
2022-08-12T23:47:58.365Z,101307.22
2022-08-12T23:50:34.303Z,101303.78
2022-08-12T23:53:06.649Z,101310.44
2022-08-12T23:55:49.867Z,101306.72
2022-08-12T23:58:22.786Z,101308.03
